sensor_id;sensor_type;location;lat;lon;timestamp;P1;durP1;ratioP1;P2;durP2;ratioP2
57535;SDS011;43361;49.790;8.960;2022-08-03T00:06:03;3.83;;;1.00;;
57535;SDS011;43361;49.790;8.960;2022-08-03T00:16:04;2.60;;;0.90;;
57535;SDS011;43361;49.790;8.960;2022-08-03T00:26:06;3.35;;;1.00;;
57535;SDS011;43361;49.790;8.960;2022-08-03T00:36:06;2.55;;;0.82;;
57535;SDS011;43361;49.790;8.960;2022-08-03T00:46:08;2.13;;;0.90;;
57535;SDS011;43361;49.790;8.960;2022-08-03T00:56:11;1.55;;;0.70;;
57535;SDS011;43361;49.790;8.960;2022-08-03T01:06:16;3.15;;;0.88;;
57535;SDS011;43361;49.790;8.960;2022-08-03T01:16:18;2.70;;;0.88;;
57535;SDS011;43361;49.790;8.960;2022-08-03T01:26:31;1.15;;;0.70;;
57535;SDS011;43361;49.790;8.960;2022-08-03T01:36:40;1.33;;;0.70;;
57535;SDS011;43361;49.790;8.960;2022-08-03T01:46:42;1.15;;;0.57;;
57535;SDS011;43361;49.790;8.960;2022-08-03T01:56:44;2.78;;;0.80;;
57535;SDS011;43361;49.790;8.960;2022-08-03T02:06:45;1.42;;;0.70;;
57535;SDS011;43361;49.790;8.960;2022-08-03T02:16:48;3.38;;;0.90;;
57535;SDS011;43361;49.790;8.960;2022-08-03T02:26:48;1.90;;;0.70;;
57535;SDS011;43361;49.790;8.960;2022-08-03T02:36:51;1.20;;;0.77;;
57535;SDS011;43361;49.790;8.960;2022-08-03T02:46:53;1.00;;;0.63;;
57535;SDS011;43361;49.790;8.960;2022-08-03T02:56:56;1.60;;;0.88;;
57535;SDS011;43361;49.790;8.960;2022-08-03T03:06:56;1.67;;;0.82;;
57535;SDS011;43361;49.790;8.960;2022-08-03T03:16:59;1.17;;;0.65;;
57535;SDS011;43361;49.790;8.960;2022-08-03T03:27:00;2.58;;;0.90;;
57535;SDS011;43361;49.790;8.960;2022-08-03T03:37:02;1.50;;;0.70;;
57535;SDS011;43361;49.790;8.960;2022-08-03T03:47:04;1.27;;;0.80;;
57535;SDS011;43361;49.790;8.960;2022-08-03T03:57:06;1.10;;;0.60;;
57535;SDS011;43361;49.790;8.960;2022-08-03T04:07:06;1.00;;;0.60;;
57535;SDS011;43361;49.790;8.960;2022-08-03T04:17:26;1.90;;;0.77;;
57535;SDS011;43361;49.790;8.960;2022-08-03T04:27:29;1.00;;;0.68;;
57535;SDS011;43361;49.790;8.960;2022-08-03T04:37:34;1.17;;;0.60;;
57535;SDS011;43361;49.790;8.960;2022-08-03T04:47:37;0.98;;;0.50;;
57535;SDS011;43361;49.790;8.960;2022-08-03T04:57:39;4.22;;;0.90;;
57535;SDS011;43361;49.790;8.960;2022-08-03T05:07:40;1.02;;;0.52;;
57535;SDS011;43361;49.790;8.960;2022-08-03T05:17:41;1.50;;;0.52;;
57535;SDS011;43361;49.790;8.960;2022-08-03T05:27:42;1.50;;;0.60;;
57535;SDS011;43361;49.790;8.960;2022-08-03T05:37:44;0.90;;;0.55;;
57535;SDS011;43361;49.790;8.960;2022-08-03T05:47:44;1.70;;;0.77;;
57535;SDS011;43361;49.790;8.960;2022-08-03T05:57:46;0.75;;;0.50;;
57535;SDS011;43361;49.790;8.960;2022-08-03T06:07:47;1.10;;;0.60;;
57535;SDS011;43361;49.790;8.960;2022-08-03T06:17:49;1.63;;;0.52;;
57535;SDS011;43361;49.790;8.960;2022-08-03T06:27:50;1.00;;;0.80;;
57535;SDS011;43361;49.790;8.960;2022-08-03T06:37:52;0.80;;;0.57;;
57535;SDS011;43361;49.790;8.960;2022-08-03T06:47:59;1.20;;;0.63;;
57535;SDS011;43361;49.790;8.960;2022-08-03T06:58:01;1.20;;;0.73;;
57535;SDS011;43361;49.790;8.960;2022-08-03T07:08:01;3.00;;;0.95;;
57535;SDS011;43361;49.790;8.960;2022-08-03T07:18:03;6.43;;;1.38;;
57535;SDS011;43361;49.790;8.960;2022-08-03T07:28:04;4.95;;;2.10;;
57535;SDS011;43361;49.790;8.960;2022-08-03T07:38:06;9.75;;;1.90;;
57535;SDS011;43361;49.790;8.960;2022-08-03T07:48:06;10.15;;;2.33;;
57535;SDS011;43361;49.790;8.960;2022-08-03T07:58:08;6.65;;;2.05;;
57535;SDS011;43361;49.790;8.960;2022-08-03T08:08:11;5.68;;;1.48;;
57535;SDS011;43361;49.790;8.960;2022-08-03T08:18:13;7.65;;;1.75;;
57535;SDS011;43361;49.790;8.960;2022-08-03T08:28:13;6.00;;;2.00;;
57535;SDS011;43361;49.790;8.960;2022-08-03T08:38:15;6.20;;;1.40;;
57535;SDS011;43361;49.790;8.960;2022-08-03T08:48:16;9.35;;;2.92;;
57535;SDS011;43361;49.790;8.960;2022-08-03T08:58:19;7.18;;;1.90;;
57535;SDS011;43361;49.790;8.960;2022-08-03T09:08:20;8.90;;;2.05;;
57535;SDS011;43361;49.790;8.960;2022-08-03T09:18:27;5.95;;;1.98;;
57535;SDS011;43361;49.790;8.960;2022-08-03T09:28:32;18.02;;;2.05;;
57535;SDS011;43361;49.790;8.960;2022-08-03T09:38:34;6.57;;;2.42;;
57535;SDS011;43361;49.790;8.960;2022-08-03T09:48:34;34.75;;;9.40;;
57535;SDS011;43361;49.790;8.960;2022-08-03T09:58:44;47.85;;;15.13;;
57535;SDS011;43361;49.790;8.960;2022-08-03T10:08:46;60.78;;;18.38;;
57535;SDS011;43361;49.790;8.960;2022-08-03T10:18:47;46.80;;;13.68;;
57535;SDS011;43361;49.790;8.960;2022-08-03T10:28:49;26.27;;;9.98;;
57535;SDS011;43361;49.790;8.960;2022-08-03T10:38:52;29.27;;;10.32;;
57535;SDS011;43361;49.790;8.960;2022-08-03T10:48:54;26.45;;;9.27;;
57535;SDS011;43361;49.790;8.960;2022-08-03T10:58:57;23.65;;;8.90;;
57535;SDS011;43361;49.790;8.960;2022-08-03T11:19:14;20.00;;;7.07;;
57535;SDS011;43361;49.790;8.960;2022-08-03T11:29:28;20.83;;;7.05;;
57535;SDS011;43361;49.790;8.960;2022-08-03T11:39:38;23.05;;;6.22;;
57535;SDS011;43361;49.790;8.960;2022-08-03T11:49:38;14.93;;;6.18;;
57535;SDS011;43361;49.790;8.960;2022-08-03T11:59:40;13.82;;;5.70;;
57535;SDS011;43361;49.790;8.960;2022-08-03T12:09:41;11.55;;;4.90;;
57535;SDS011;43361;49.790;8.960;2022-08-03T12:19:43;12.73;;;5.00;;
57535;SDS011;43361;49.790;8.960;2022-08-03T12:29:43;11.00;;;4.72;;
57535;SDS011;43361;49.790;8.960;2022-08-03T12:39:51;12.00;;;4.60;;
57535;SDS011;43361;49.790;8.960;2022-08-03T12:49:52;9.75;;;3.88;;
57535;SDS011;43361;49.790;8.960;2022-08-03T12:59:54;7.57;;;3.90;;
57535;SDS011;43361;49.790;8.960;2022-08-03T13:09:55;7.80;;;3.30;;
57535;SDS011;43361;49.790;8.960;2022-08-03T13:19:57;11.45;;;3.78;;
57535;SDS011;43361;49.790;8.960;2022-08-03T13:29:57;15.18;;;4.10;;
57535;SDS011;43361;49.790;8.960;2022-08-03T13:39:59;11.52;;;3.42;;
57535;SDS011;43361;49.790;8.960;2022-08-03T13:50:00;7.30;;;3.22;;
57535;SDS011;43361;49.790;8.960;2022-08-03T14:00:03;9.05;;;3.17;;
57535;SDS011;43361;49.790;8.960;2022-08-03T14:10:04;6.63;;;2.78;;
57535;SDS011;43361;49.790;8.960;2022-08-03T14:20:07;9.70;;;2.85;;
57535;SDS011;43361;49.790;8.960;2022-08-03T14:30:08;8.10;;;3.10;;
57535;SDS011;43361;49.790;8.960;2022-08-03T14:40:10;8.80;;;3.22;;
57535;SDS011;43361;49.790;8.960;2022-08-03T14:50:10;7.30;;;2.75;;
57535;SDS011;43361;49.790;8.960;2022-08-03T15:00:13;6.65;;;2.53;;
57535;SDS011;43361;49.790;8.960;2022-08-03T15:10:14;6.60;;;2.63;;
57535;SDS011;43361;49.790;8.960;2022-08-03T15:20:16;6.57;;;2.30;;
57535;SDS011;43361;49.790;8.960;2022-08-03T15:30:16;8.68;;;2.88;;
57535;SDS011;43361;49.790;8.960;2022-08-03T15:40:18;10.65;;;3.15;;
57535;SDS011;43361;49.790;8.960;2022-08-03T15:50:18;7.78;;;2.60;;
57535;SDS011;43361;49.790;8.960;2022-08-03T16:00:20;12.60;;;2.75;;
57535;SDS011;43361;49.790;8.960;2022-08-03T16:10:21;12.05;;;2.70;;
57535;SDS011;43361;49.790;8.960;2022-08-03T16:20:22;8.45;;;2.90;;
57535;SDS011;43361;49.790;8.960;2022-08-03T16:30:23;8.85;;;2.45;;
57535;SDS011;43361;49.790;8.960;2022-08-03T16:40:25;10.95;;;2.42;;
57535;SDS011;43361;49.790;8.960;2022-08-03T16:50:26;12.02;;;2.60;;
57535;SDS011;43361;49.790;8.960;2022-08-03T17:00:27;7.18;;;2.30;;
57535;SDS011;43361;49.790;8.960;2022-08-03T17:10:28;6.70;;;2.00;;
57535;SDS011;43361;49.790;8.960;2022-08-03T17:20:30;4.10;;;1.80;;
57535;SDS011;43361;49.790;8.960;2022-08-03T17:30:31;5.85;;;1.90;;
57535;SDS011;43361;49.790;8.960;2022-08-03T17:40:54;4.95;;;1.80;;
57535;SDS011;43361;49.790;8.960;2022-08-03T17:50:57;5.82;;;2.15;;
57535;SDS011;43361;49.790;8.960;2022-08-03T18:01:00;4.90;;;1.50;;
57535;SDS011;43361;49.790;8.960;2022-08-03T18:11:21;9.93;;;1.80;;
57535;SDS011;43361;49.790;8.960;2022-08-03T18:21:24;3.22;;;1.60;;
57535;SDS011;43361;49.790;8.960;2022-08-03T18:31:24;3.85;;;1.70;;
57535;SDS011;43361;49.790;8.960;2022-08-03T18:41:28;4.45;;;1.30;;
57535;SDS011;43361;49.790;8.960;2022-08-03T18:51:28;4.10;;;1.48;;
57535;SDS011;43361;49.790;8.960;2022-08-03T19:01:33;3.72;;;1.70;;
57535;SDS011;43361;49.790;8.960;2022-08-03T19:11:38;5.45;;;1.80;;
57535;SDS011;43361;49.790;8.960;2022-08-03T19:21:40;2.20;;;1.30;;
57535;SDS011;43361;49.790;8.960;2022-08-03T19:31:40;3.33;;;1.58;;
57535;SDS011;43361;49.790;8.960;2022-08-03T19:41:44;2.45;;;1.50;;
57535;SDS011;43361;49.790;8.960;2022-08-03T19:51:47;2.33;;;1.45;;
57535;SDS011;43361;49.790;8.960;2022-08-03T20:01:51;3.88;;;1.92;;
57535;SDS011;43361;49.790;8.960;2022-08-03T20:11:52;4.38;;;1.58;;
57535;SDS011;43361;49.790;8.960;2022-08-03T20:21:54;4.38;;;1.45;;
57535;SDS011;43361;49.790;8.960;2022-08-03T20:31:55;5.07;;;1.55;;
57535;SDS011;43361;49.790;8.960;2022-08-03T20:41:57;2.90;;;1.52;;
57535;SDS011;43361;49.790;8.960;2022-08-03T20:51:57;3.50;;;1.70;;
57535;SDS011;43361;49.790;8.960;2022-08-03T21:01:59;2.28;;;1.42;;
57535;SDS011;43361;49.790;8.960;2022-08-03T21:12:00;2.72;;;1.50;;
57535;SDS011;43361;49.790;8.960;2022-08-03T21:22:03;2.63;;;1.50;;
57535;SDS011;43361;49.790;8.960;2022-08-03T21:32:05;4.05;;;1.70;;
57535;SDS011;43361;49.790;8.960;2022-08-03T21:42:11;2.42;;;1.65;;
57535;SDS011;43361;49.790;8.960;2022-08-03T21:52:11;2.22;;;1.50;;
57535;SDS011;43361;49.790;8.960;2022-08-03T22:02:13;3.00;;;1.80;;
57535;SDS011;43361;49.790;8.960;2022-08-03T22:12:15;2.15;;;1.50;;
57535;SDS011;43361;49.790;8.960;2022-08-03T22:22:17;3.45;;;1.80;;
57535;SDS011;43361;49.790;8.960;2022-08-03T22:32:18;4.43;;;1.67;;
57535;SDS011;43361;49.790;8.960;2022-08-03T22:42:21;1.88;;;1.52;;
57535;SDS011;43361;49.790;8.960;2022-08-03T22:52:21;2.75;;;1.55;;
57535;SDS011;43361;49.790;8.960;2022-08-03T23:02:24;1.90;;;1.40;;
57535;SDS011;43361;49.790;8.960;2022-08-03T23:12:25;2.25;;;1.70;;
57535;SDS011;43361;49.790;8.960;2022-08-03T23:22:27;1.73;;;1.35;;
57535;SDS011;43361;49.790;8.960;2022-08-03T23:32:28;1.75;;;1.35;;
57535;SDS011;43361;49.790;8.960;2022-08-03T23:42:30;1.55;;;1.30;;
57535;SDS011;43361;49.790;8.960;2022-08-03T23:52:32;2.95;;;1.60;;
